sensor_id;sensor_type;location;lat;lon;timestamp;pressure;altitude;pressure_sealevel;temperature;humidity
39555;BME280;25231;48.746;9.234;2023-03-11T00:00:16;95606.41;;;1.74;82.43
39555;BME280;25231;48.746;9.234;2023-03-11T00:02:44;95608.63;;;1.63;83.54
39555;BME280;25231;48.746;9.234;2023-03-11T00:05:17;95610.41;;;1.63;82.87
39555;BME280;25231;48.746;9.234;2023-03-11T00:07:43;95618.34;;;1.68;83.46
39555;BME280;25231;48.746;9.234;2023-03-11T00:10:13;95608.44;;;1.58;82.91
39555;BME280;25231;48.746;9.234;2023-03-11T00:12:39;95623.13;;;1.51;83.49
39555;BME280;25231;48.746;9.234;2023-03-11T00:15:05;95624.91;;;1.38;84.15
39555;BME280;25231;48.746;9.234;2023-03-11T00:17:30;95638.00;;;1.36;84.42
39555;BME280;25231;48.746;9.234;2023-03-11T00:19:56;95628.88;;;1.47;84.77
39555;BME280;25231;48.746;9.234;2023-03-11T00:22:21;95632.28;;;1.60;84.23
39555;BME280;25231;48.746;9.234;2023-03-11T00:24:47;95642.41;;;1.49;84.32
39555;BME280;25231;48.746;9.234;2023-03-11T00:27:12;95648.75;;;1.53;86.26
39555;BME280;25231;48.746;9.234;2023-03-11T00:29:38;95641.78;;;1.47;86.28
39555;BME280;25231;48.746;9.234;2023-03-11T00:32:03;95637.03;;;1.50;85.90
39555;BME280;25231;48.746;9.234;2023-03-11T00:34:29;95641.59;;;1.42;87.10
39555;BME280;25231;48.746;9.234;2023-03-11T00:36:54;95634.03;;;1.47;86.65
39555;BME280;25231;48.746;9.234;2023-03-11T00:39:20;95638.03;;;1.49;87.19
39555;BME280;25231;48.746;9.234;2023-03-11T00:41:45;95633.06;;;1.54;87.71
39555;BME280;25231;48.746;9.234;2023-03-11T00:44:11;95638.22;;;1.54;87.49
39555;BME280;25231;48.746;9.234;2023-03-11T00:46:36;95646.78;;;1.55;87.86
39555;BME280;25231;48.746;9.234;2023-03-11T00:49:02;95648.75;;;1.53;87.66
39555;BME280;25231;48.746;9.234;2023-03-11T00:51:27;95655.88;;;1.51;87.89
39555;BME280;25231;48.746;9.234;2023-03-11T00:53:53;95652.53;;;1.50;89.31
39555;BME280;25231;48.746;9.234;2023-03-11T00:56:19;95654.31;;;1.63;88.19
39555;BME280;25231;48.746;9.234;2023-03-11T00:58:45;95658.09;;;1.67;88.21
39555;BME280;25231;48.746;9.234;2023-03-11T01:01:15;95641.59;;;1.48;88.65
39555;BME280;25231;48.746;9.234;2023-03-11T01:03:41;95651.53;;;1.58;89.42
39555;BME280;25231;48.746;9.234;2023-03-11T01:06:07;95666.81;;;1.46;89.36
39555;BME280;25231;48.746;9.234;2023-03-11T01:08:33;95650.75;;;1.44;89.78
39555;BME280;25231;48.746;9.234;2023-03-11T01:10:59;95649.94;;;1.37;90.66
39555;BME280;25231;48.746;9.234;2023-03-11T01:13:26;95644.38;;;1.34;90.88
39555;BME280;25231;48.746;9.234;2023-03-11T01:15:52;95640.78;;;1.35;91.61
39555;BME280;25231;48.746;9.234;2023-03-11T01:18:18;95641.38;;;1.37;91.90
39555;BME280;25231;48.746;9.234;2023-03-11T01:20:45;95643.97;;;1.37;91.88
39555;BME280;25231;48.746;9.234;2023-03-11T01:23:11;95640.38;;;1.51;92.65
39555;BME280;25231;48.746;9.234;2023-03-11T01:25:37;95649.34;;;1.42;92.79
39555;BME280;25231;48.746;9.234;2023-03-11T01:28:04;95637.41;;;1.47;92.17
39555;BME280;25231;48.746;9.234;2023-03-11T01:30:29;95646.53;;;1.23;90.46
39555;BME280;25231;48.746;9.234;2023-03-11T01:32:56;95659.47;;;1.37;90.78
39555;BME280;25231;48.746;9.234;2023-03-11T01:35:24;95654.69;;;1.27;91.05
39555;BME280;25231;48.746;9.234;2023-03-11T01:37:50;95666.00;;;1.26;89.55
39555;BME280;25231;48.746;9.234;2023-03-11T01:40:37;95678.09;;;1.19;89.07
39555;BME280;25231;48.746;9.234;2023-03-11T01:43:05;95691.34;;;1.03;89.83
39555;BME280;25231;48.746;9.234;2023-03-11T01:48:23;95681.22;;;1.08;88.28
39555;BME280;25231;48.746;9.234;2023-03-11T01:50:49;95696.72;;;1.14;88.75
39555;BME280;25231;48.746;9.234;2023-03-11T01:53:16;95694.09;;;1.01;88.54
39555;BME280;25231;48.746;9.234;2023-03-11T01:55:43;95685.00;;;0.99;88.31
39555;BME280;25231;48.746;9.234;2023-03-11T01:58:13;95683.56;;;0.83;89.13
39555;BME280;25231;48.746;9.234;2023-03-11T02:00:41;95666.50;;;0.95;88.87
39555;BME280;25231;48.746;9.234;2023-03-11T02:03:39;95680.38;;;0.88;88.63
39555;BME280;25231;48.746;9.234;2023-03-11T02:06:17;95683.91;;;0.80;89.03
39555;BME280;25231;48.746;9.234;2023-03-11T02:08:44;95694.66;;;0.83;88.29
39555;BME280;25231;48.746;9.234;2023-03-11T02:11:15;95695.88;;;0.88;88.11
39555;BME280;25231;48.746;9.234;2023-03-11T02:13:44;95691.47;;;0.81;88.71
39555;BME280;25231;48.746;9.234;2023-03-11T02:16:11;95688.34;;;0.93;88.11
39555;BME280;25231;48.746;9.234;2023-03-11T02:18:38;95716.28;;;0.82;88.36
39555;BME280;25231;48.746;9.234;2023-03-11T02:21:16;95708.97;;;0.93;87.90
39555;BME280;25231;48.746;9.234;2023-03-11T02:23:57;95712.16;;;0.95;86.60
39555;BME280;25231;48.746;9.234;2023-03-11T02:26:32;95706.56;;;0.91;87.72
39555;BME280;25231;48.746;9.234;2023-03-11T02:29:02;95721.47;;;0.89;87.22
39555;BME280;25231;48.746;9.234;2023-03-11T02:31:30;95708.31;;;0.77;86.94
39555;BME280;25231;48.746;9.234;2023-03-11T02:33:56;95716.00;;;0.64;86.53
39555;BME280;25231;48.746;9.234;2023-03-11T02:36:33;95701.84;;;0.54;85.52
39555;BME280;25231;48.746;9.234;2023-03-11T02:38:59;95722.66;;;0.52;86.30
39555;BME280;25231;48.746;9.234;2023-03-11T02:41:26;95708.50;;;0.35;85.91
39555;BME280;25231;48.746;9.234;2023-03-11T02:43:52;95708.25;;;0.30;85.94
39555;BME280;25231;48.746;9.234;2023-03-11T02:46:18;95702.13;;;0.31;86.32
39555;BME280;25231;48.746;9.234;2023-03-11T02:48:44;95702.25;;;0.23;86.83
39555;BME280;25231;48.746;9.234;2023-03-11T02:51:11;95703.06;;;0.23;86.10
39555;BME280;25231;48.746;9.234;2023-03-11T02:53:41;95706.84;;;0.21;85.69
39555;BME280;25231;48.746;9.234;2023-03-11T02:56:09;95698.03;;;0.09;85.13
39555;BME280;25231;48.746;9.234;2023-03-11T02:58:34;95689.91;;;0.12;85.44
39555;BME280;25231;48.746;9.234;2023-03-11T03:01:00;95700.22;;;0.12;85.61
39555;BME280;25231;48.746;9.234;2023-03-11T03:03:25;95691.22;;;0.01;86.78
39555;BME280;25231;48.746;9.234;2023-03-11T03:05:50;95699.09;;;-0.07;86.85
39555;BME280;25231;48.746;9.234;2023-03-11T03:08:16;95707.63;;;-0.07;87.58
39555;BME280;25231;48.746;9.234;2023-03-11T03:10:41;95726.81;;;-0.09;87.62
39555;BME280;25231;48.746;9.234;2023-03-11T03:13:07;95722.06;;;-0.12;86.78
39555;BME280;25231;48.746;9.234;2023-03-11T03:15:33;95721.94;;;-0.25;86.19
39555;BME280;25231;48.746;9.234;2023-03-11T03:17:58;95727.72;;;-0.17;86.32
39555;BME280;25231;48.746;9.234;2023-03-11T03:20:23;95740.59;;;-0.17;86.37
39555;BME280;25231;48.746;9.234;2023-03-11T03:22:51;95738.84;;;-0.16;86.41
39555;BME280;25231;48.746;9.234;2023-03-11T03:25:16;95734.47;;;-0.16;87.48
39555;BME280;25231;48.746;9.234;2023-03-11T03:27:42;95734.88;;;-0.19;87.12
39555;BME280;25231;48.746;9.234;2023-03-11T03:30:08;95733.22;;;-0.26;86.18
39555;BME280;25231;48.746;9.234;2023-03-11T03:32:33;95721.63;;;-0.37;86.18
39555;BME280;25231;48.746;9.234;2023-03-11T03:35:00;95723.59;;;-0.39;86.08
39555;BME280;25231;48.746;9.234;2023-03-11T03:37:26;95721.56;;;-0.44;86.42
39555;BME280;25231;48.746;9.234;2023-03-11T03:39:52;95722.19;;;-0.42;86.43
39555;BME280;25231;48.746;9.234;2023-03-11T03:42:22;95727.28;;;-0.48;86.95
39555;BME280;25231;48.746;9.234;2023-03-11T03:44:50;95722.75;;;-0.46;87.48
39555;BME280;25231;48.746;9.234;2023-03-11T03:47:17;95730.81;;;-0.49;87.65
39555;BME280;25231;48.746;9.234;2023-03-11T03:49:43;95732.06;;;-0.45;87.71
39555;BME280;25231;48.746;9.234;2023-03-11T03:52:08;95737.56;;;-0.48;88.31
39555;BME280;25231;48.746;9.234;2023-03-11T03:54:35;95744.16;;;-0.60;88.69
39555;BME280;25231;48.746;9.234;2023-03-11T03:57:01;95741.84;;;-0.55;89.47
39555;BME280;25231;48.746;9.234;2023-03-11T03:59:27;95749.22;;;-0.52;88.66
39555;BME280;25231;48.746;9.234;2023-03-11T04:01:52;95758.13;;;-0.69;89.36
39555;BME280;25231;48.746;9.234;2023-03-11T04:04:18;95770.56;;;-0.73;89.94
39555;BME280;25231;48.746;9.234;2023-03-11T04:06:45;95763.63;;;-0.72;89.61
39555;BME280;25231;48.746;9.234;2023-03-11T04:09:11;95773.75;;;-0.71;90.19
39555;BME280;25231;48.746;9.234;2023-03-11T04:11:37;95786.78;;;-0.72;89.87
39555;BME280;25231;48.746;9.234;2023-03-11T04:14:03;95784.28;;;-0.66;90.03
39555;BME280;25231;48.746;9.234;2023-03-11T04:16:29;95784.19;;;-0.58;89.92
39555;BME280;25231;48.746;9.234;2023-03-11T04:18:55;95784.50;;;-0.46;88.89
39555;BME280;25231;48.746;9.234;2023-03-11T04:21:20;95780.56;;;-0.63;90.02
39555;BME280;25231;48.746;9.234;2023-03-11T04:23:46;95770.38;;;-0.71;90.68
39555;BME280;25231;48.746;9.234;2023-03-11T04:26:11;95772.69;;;-0.76;90.79
39555;BME280;25231;48.746;9.234;2023-03-11T04:28:37;95764.09;;;-0.84;91.92
39555;BME280;25231;48.746;9.234;2023-03-11T04:31:03;95764.09;;;-0.84;91.85
39555;BME280;25231;48.746;9.234;2023-03-11T04:33:28;95769.44;;;-0.85;92.27
39555;BME280;25231;48.746;9.234;2023-03-11T04:35:54;95772.44;;;-0.81;92.63
39555;BME280;25231;48.746;9.234;2023-03-11T04:38:19;95779.44;;;-0.75;92.69
39555;BME280;25231;48.746;9.234;2023-03-11T04:40:45;95776.00;;;-0.82;92.97
39555;BME280;25231;48.746;9.234;2023-03-11T04:43:10;95777.03;;;-0.77;93.09
39555;BME280;25231;48.746;9.234;2023-03-11T04:45:40;95775.91;;;-0.74;92.86
39555;BME280;25231;48.746;9.234;2023-03-11T04:48:09;95773.41;;;-0.82;92.98
39555;BME280;25231;48.746;9.234;2023-03-11T04:50:35;95765.44;;;-0.88;93.61
39555;BME280;25231;48.746;9.234;2023-03-11T04:53:01;95769.63;;;-0.87;93.38
39555;BME280;25231;48.746;9.234;2023-03-11T04:55:26;95770.03;;;-0.83;93.20
39555;BME280;25231;48.746;9.234;2023-03-11T04:57:54;95776.97;;;-0.84;92.99
39555;BME280;25231;48.746;9.234;2023-03-11T05:00:19;95776.44;;;-0.79;93.57
39555;BME280;25231;48.746;9.234;2023-03-11T05:02:49;95778.22;;;-0.94;93.43
39555;BME280;25231;48.746;9.234;2023-03-11T05:05:15;95784.25;;;-0.87;93.74
39555;BME280;25231;48.746;9.234;2023-03-11T05:07:40;95782.47;;;-0.87;94.08
39555;BME280;25231;48.746;9.234;2023-03-11T05:10:06;95779.28;;;-0.89;94.36
39555;BME280;25231;48.746;9.234;2023-03-11T05:12:32;95786.41;;;-0.91;94.04
39555;BME280;25231;48.746;9.234;2023-03-11T05:14:57;95786.03;;;-0.88;94.24
39555;BME280;25231;48.746;9.234;2023-03-11T05:17:23;95790.47;;;-0.96;94.74
39555;BME280;25231;48.746;9.234;2023-03-11T05:19:50;95795.44;;;-0.95;94.88
39555;BME280;25231;48.746;9.234;2023-03-11T05:22:15;95794.56;;;-1.02;95.25
39555;BME280;25231;48.746;9.234;2023-03-11T05:24:41;95796.50;;;-1.04;95.51
39555;BME280;25231;48.746;9.234;2023-03-11T05:27:06;95796.78;;;-0.99;95.54
39555;BME280;25231;48.746;9.234;2023-03-11T05:29:32;95797.94;;;-1.01;95.60
39555;BME280;25231;48.746;9.234;2023-03-11T05:31:57;95803.06;;;-1.16;95.89
39555;BME280;25231;48.746;9.234;2023-03-11T05:34:23;95805.56;;;-1.08;96.49
39555;BME280;25231;48.746;9.234;2023-03-11T05:36:48;95800.06;;;-1.05;95.40
39555;BME280;25231;48.746;9.234;2023-03-11T05:39:14;95805.41;;;-1.06;95.76
39555;BME280;25231;48.746;9.234;2023-03-11T05:41:39;95806.72;;;-1.10;95.71
39555;BME280;25231;48.746;9.234;2023-03-11T05:44:05;95813.63;;;-1.11;96.14
39555;BME280;25231;48.746;9.234;2023-03-11T05:46:31;95817.34;;;-1.13;95.78
39555;BME280;25231;48.746;9.234;2023-03-11T05:48:58;95802.72;;;-1.13;96.03
39555;BME280;25231;48.746;9.234;2023-03-11T05:51:24;95804.94;;;-1.10;96.32
39555;BME280;25231;48.746;9.234;2023-03-11T05:53:49;95798.66;;;-1.07;95.97
39555;BME280;25231;48.746;9.234;2023-03-11T05:56:18;95807.88;;;-1.13;96.40
39555;BME280;25231;48.746;9.234;2023-03-11T05:58:44;95806.16;;;-1.06;96.54
39555;BME280;25231;48.746;9.234;2023-03-11T06:01:12;95808.03;;;-1.00;95.66
39555;BME280;25231;48.746;9.234;2023-03-11T06:03:39;95809.19;;;-1.02;96.36
39555;BME280;25231;48.746;9.234;2023-03-11T06:06:07;95819.38;;;-0.94;95.98
39555;BME280;25231;48.746;9.234;2023-03-11T06:08:32;95813.97;;;-0.99;95.24
39555;BME280;25231;48.746;9.234;2023-03-11T06:11:06;95818.31;;;-1.00;95.80
39555;BME280;25231;48.746;9.234;2023-03-11T06:13:32;95826.91;;;-0.93;95.13
39555;BME280;25231;48.746;9.234;2023-03-11T06:15:57;95825.50;;;-0.80;94.99
39555;BME280;25231;48.746;9.234;2023-03-11T06:18:23;95820.03;;;-0.56;93.88
39555;BME280;25231;48.746;9.234;2023-03-11T06:20:50;95828.44;;;-0.48;93.62
39555;BME280;25231;48.746;9.234;2023-03-11T06:23:53;95824.91;;;-0.25;92.11
39555;BME280;25231;48.746;9.234;2023-03-11T06:28:52;95824.56;;;-0.01;90.35
39555;BME280;25231;48.746;9.234;2023-03-11T06:31:22;95820.88;;;-0.13;89.78
39555;BME280;25231;48.746;9.234;2023-03-11T06:33:52;95832.56;;;-0.11;90.13
39555;BME280;25231;48.746;9.234;2023-03-11T06:36:20;95828.34;;;0.03;89.49
39555;BME280;25231;48.746;9.234;2023-03-11T06:38:46;95837.19;;;0.15;88.77
39555;BME280;25231;48.746;9.234;2023-03-11T06:41:12;95845.94;;;0.21;87.97
39555;BME280;25231;48.746;9.234;2023-03-11T06:43:38;95851.09;;;0.21;87.26
39555;BME280;25231;48.746;9.234;2023-03-11T06:46:22;95853.28;;;0.24;87.02
39555;BME280;25231;48.746;9.234;2023-03-11T06:48:48;95870.59;;;0.30;86.91
39555;BME280;25231;48.746;9.234;2023-03-11T06:51:17;95869.50;;;0.18;86.66
39555;BME280;25231;48.746;9.234;2023-03-11T06:53:46;95885.06;;;0.31;85.22
39555;BME280;25231;48.746;9.234;2023-03-11T06:56:12;95877.03;;;0.19;86.59
39555;BME280;25231;48.746;9.234;2023-03-11T06:58:41;95886.47;;;0.12;87.30
39555;BME280;25231;48.746;9.234;2023-03-11T07:01:15;95883.09;;;0.12;86.70
39555;BME280;25231;48.746;9.234;2023-03-11T07:03:41;95885.88;;;0.10;86.67
39555;BME280;25231;48.746;9.234;2023-03-11T07:06:19;95891.81;;;0.53;85.75
39555;BME280;25231;48.746;9.234;2023-03-11T07:08:47;95896.00;;;0.82;83.51
39555;BME280;25231;48.746;9.234;2023-03-11T07:11:15;95900.63;;;1.21;81.57
39555;BME280;25231;48.746;9.234;2023-03-11T07:13:41;95897.53;;;1.39;80.88
39555;BME280;25231;48.746;9.234;2023-03-11T07:16:11;95894.75;;;1.34;80.21
39555;BME280;25231;48.746;9.234;2023-03-11T07:18:39;95904.75;;;1.56;79.27
39555;BME280;25231;48.746;9.234;2023-03-11T07:21:06;95903.47;;;1.80;77.96
39555;BME280;25231;48.746;9.234;2023-03-11T07:23:33;95907.16;;;1.58;78.79
39555;BME280;25231;48.746;9.234;2023-03-11T07:25:59;95905.03;;;1.27;78.57
39555;BME280;25231;48.746;9.234;2023-03-11T07:28:25;95907.44;;;1.35;78.28
39555;BME280;25231;48.746;9.234;2023-03-11T07:30:51;95906.88;;;1.05;80.05
39555;BME280;25231;48.746;9.234;2023-03-11T07:33:18;95917.44;;;1.45;79.36
39555;BME280;25231;48.746;9.234;2023-03-11T07:35:43;95919.22;;;1.51;78.16
39555;BME280;25231;48.746;9.234;2023-03-11T07:38:09;95918.75;;;1.34;78.83
39555;BME280;25231;48.746;9.234;2023-03-11T07:40:35;95923.22;;;1.53;78.25
39555;BME280;25231;48.746;9.234;2023-03-11T07:43:00;95927.28;;;1.28;78.00
39555;BME280;25231;48.746;9.234;2023-03-11T07:45:26;95925.44;;;1.22;78.04
39555;BME280;25231;48.746;9.234;2023-03-11T07:47:51;95927.75;;;1.45;77.94
39555;BME280;25231;48.746;9.234;2023-03-11T07:50:17;95924.06;;;1.60;76.75
39555;BME280;25231;48.746;9.234;2023-03-11T07:52:43;95930.13;;;1.87;75.93
39555;BME280;25231;48.746;9.234;2023-03-11T07:55:09;95937.75;;;2.08;74.72
39555;BME280;25231;48.746;9.234;2023-03-11T07:57:34;95936.84;;;1.75;74.69
39555;BME280;25231;48.746;9.234;2023-03-11T08:00:00;95940.00;;;1.71;74.91
39555;BME280;25231;48.746;9.234;2023-03-11T08:02:26;95939.06;;;1.91;76.77
39555;BME280;25231;48.746;9.234;2023-03-11T08:04:51;95941.13;;;2.09;74.34
39555;BME280;25231;48.746;9.234;2023-03-11T08:07:17;95940.31;;;2.02;74.66
39555;BME280;25231;48.746;9.234;2023-03-11T08:09:44;95938.59;;;2.29;73.03
39555;BME280;25231;48.746;9.234;2023-03-11T08:12:10;95944.69;;;2.08;72.74
39555;BME280;25231;48.746;9.234;2023-03-11T08:14:35;95950.34;;;2.31;71.58
39555;BME280;25231;48.746;9.234;2023-03-11T08:17:02;95940.97;;;2.30;72.18
39555;BME280;25231;48.746;9.234;2023-03-11T08:19:28;95952.97;;;2.58;71.43
39555;BME280;25231;48.746;9.234;2023-03-11T08:21:53;95951.38;;;2.57;70.44
39555;BME280;25231;48.746;9.234;2023-03-11T08:24:19;95959.34;;;2.68;70.33
39555;BME280;25231;48.746;9.234;2023-03-11T08:26:44;95961.31;;;2.46;69.92
39555;BME280;25231;48.746;9.234;2023-03-11T08:29:09;95964.06;;;2.32;70.77
39555;BME280;25231;48.746;9.234;2023-03-11T08:31:35;95965.13;;;2.50;71.33
39555;BME280;25231;48.746;9.234;2023-03-11T08:34:04;95963.94;;;2.73;70.13
39555;BME280;25231;48.746;9.234;2023-03-11T08:36:30;95967.25;;;2.40;67.91
39555;BME280;25231;48.746;9.234;2023-03-11T08:38:56;95976.44;;;1.95;70.46
39555;BME280;25231;48.746;9.234;2023-03-11T08:41:22;95977.25;;;1.96;71.55
39555;BME280;25231;48.746;9.234;2023-03-11T08:43:47;95983.47;;;2.08;71.31
39555;BME280;25231;48.746;9.234;2023-03-11T08:46:16;95977.75;;;2.26;69.85
39555;BME280;25231;48.746;9.234;2023-03-11T08:48:43;95978.81;;;2.38;69.72
39555;BME280;25231;48.746;9.234;2023-03-11T08:51:10;95977.50;;;2.95;68.92
39555;BME280;25231;48.746;9.234;2023-03-11T08:53:36;95978.88;;;2.97;68.53
39555;BME280;25231;48.746;9.234;2023-03-11T08:56:02;95992.38;;;2.66;68.65
39555;BME280;25231;48.746;9.234;2023-03-11T08:58:27;95989.75;;;2.53;69.05
39555;BME280;25231;48.746;9.234;2023-03-11T09:00:54;95996.13;;;2.44;69.63
39555;BME280;25231;48.746;9.234;2023-03-11T09:03:19;96001.31;;;2.64;67.80
39555;BME280;25231;48.746;9.234;2023-03-11T09:05:45;95998.09;;;2.42;68.20
39555;BME280;25231;48.746;9.234;2023-03-11T09:08:10;95992.91;;;2.35;68.43
39555;BME280;25231;48.746;9.234;2023-03-11T09:13:56;96001.97;;;2.12;68.44
39555;BME280;25231;48.746;9.234;2023-03-11T09:16:22;96002.88;;;1.91;70.31
39555;BME280;25231;48.746;9.234;2023-03-11T09:18:48;95997.34;;;1.59;72.62
39555;BME280;25231;48.746;9.234;2023-03-11T09:21:13;96000.06;;;1.51;72.86
39555;BME280;25231;48.746;9.234;2023-03-11T09:23:39;96005.84;;;1.88;72.55
39555;BME280;25231;48.746;9.234;2023-03-11T09:26:05;96004.00;;;2.16;72.31
39555;BME280;25231;48.746;9.234;2023-03-11T09:28:31;96008.88;;;2.59;67.99
39555;BME280;25231;48.746;9.234;2023-03-11T09:30:57;96011.91;;;2.75;66.07
39555;BME280;25231;48.746;9.234;2023-03-11T09:33:23;96020.28;;;2.77;66.66
39555;BME280;25231;48.746;9.234;2023-03-11T09:35:50;96020.91;;;2.99;65.21
39555;BME280;25231;48.746;9.234;2023-03-11T09:38:15;96020.69;;;3.07;64.85
39555;BME280;25231;48.746;9.234;2023-03-11T09:46:29;96011.50;;;2.72;65.71
39555;BME280;25231;48.746;9.234;2023-03-11T09:51:31;96011.97;;;2.34;66.65
39555;BME280;25231;48.746;9.234;2023-03-11T09:54:08;96018.72;;;2.29;65.53
39555;BME280;25231;48.746;9.234;2023-03-11T09:56:34;96018.25;;;2.12;65.76
39555;BME280;25231;48.746;9.234;2023-03-11T09:59:25;96021.59;;;2.54;64.19
39555;BME280;25231;48.746;9.234;2023-03-11T10:01:51;96014.50;;;2.82;63.37
39555;BME280;25231;48.746;9.234;2023-03-11T10:04:22;96018.09;;;2.94;62.21
39555;BME280;25231;48.746;9.234;2023-03-11T10:06:51;96016.13;;;3.09;60.94
39555;BME280;25231;48.746;9.234;2023-03-11T10:09:54;96013.88;;;3.65;60.86
39555;BME280;25231;48.746;9.234;2023-03-11T10:15:51;96020.69;;;3.07;63.92
39555;BME280;25231;48.746;9.234;2023-03-11T10:18:42;96011.53;;;2.78;64.93
39555;BME280;25231;48.746;9.234;2023-03-11T10:27:09;96011.22;;;4.49;56.32
39555;BME280;25231;48.746;9.234;2023-03-11T10:29:41;96006.63;;;4.83;51.56
39555;BME280;25231;48.746;9.234;2023-03-11T10:32:16;96018.38;;;4.54;55.11
39555;BME280;25231;48.746;9.234;2023-03-11T10:34:57;96015.09;;;4.27;58.13
39555;BME280;25231;48.746;9.234;2023-03-11T10:37:28;96010.63;;;3.96;57.04
39555;BME280;25231;48.746;9.234;2023-03-11T10:40:06;96017.47;;;3.58;59.04
39555;BME280;25231;48.746;9.234;2023-03-11T10:42:35;96009.13;;;3.49;58.45
39555;BME280;25231;48.746;9.234;2023-03-11T10:45:01;96005.78;;;3.22;59.73
39555;BME280;25231;48.746;9.234;2023-03-11T10:47:28;96006.38;;;3.11;59.06
39555;BME280;25231;48.746;9.234;2023-03-11T10:49:53;96011.53;;;3.05;58.61
39555;BME280;25231;48.746;9.234;2023-03-11T10:52:19;96013.53;;;2.89;58.15
39555;BME280;25231;48.746;9.234;2023-03-11T10:54:47;96014.69;;;2.87;58.46
39555;BME280;25231;48.746;9.234;2023-03-11T10:59:52;96006.88;;;2.54;58.87
39555;BME280;25231;48.746;9.234;2023-03-11T11:02:32;96017.69;;;2.84;58.56
39555;BME280;25231;48.746;9.234;2023-03-11T11:07:43;96017.50;;;3.05;58.10
39555;BME280;25231;48.746;9.234;2023-03-11T11:10:25;96008.94;;;3.18;57.64
39555;BME280;25231;48.746;9.234;2023-03-11T11:17:49;96023.25;;;3.60;56.25
39555;BME280;25231;48.746;9.234;2023-03-11T11:20:17;96022.66;;;3.58;54.67
39555;BME280;25231;48.746;9.234;2023-03-11T11:22:54;96011.22;;;3.92;54.84
39555;BME280;25231;48.746;9.234;2023-03-11T11:28:11;96013.28;;;3.76;52.79
39555;BME280;25231;48.746;9.234;2023-03-11T11:30:55;96016.97;;;4.07;52.14
39555;BME280;25231;48.746;9.234;2023-03-11T11:33:27;96021.41;;;3.93;52.31
39555;BME280;25231;48.746;9.234;2023-03-11T11:35:55;96015.31;;;4.26;52.62
39555;BME280;25231;48.746;9.234;2023-03-11T11:38:23;96019.66;;;4.38;51.22
39555;BME280;25231;48.746;9.234;2023-03-11T11:40:50;96019.81;;;3.79;52.79
39555;BME280;25231;48.746;9.234;2023-03-11T11:43:19;96018.84;;;3.73;54.34
39555;BME280;25231;48.746;9.234;2023-03-11T11:45:52;96014.50;;;3.61;55.27
39555;BME280;25231;48.746;9.234;2023-03-11T11:50:51;96010.13;;;3.48;55.02
39555;BME280;25231;48.746;9.234;2023-03-11T11:56:01;96013.13;;;3.32;54.15
39555;BME280;25231;48.746;9.234;2023-03-11T11:58:27;96005.97;;;3.21;52.62
39555;BME280;25231;48.746;9.234;2023-03-11T12:06:30;96003.53;;;3.52;51.46
39555;BME280;25231;48.746;9.234;2023-03-11T12:09:17;96003.53;;;3.52;51.85
39555;BME280;25231;48.746;9.234;2023-03-11T12:11:54;95997.91;;;3.82;52.59
39555;BME280;25231;48.746;9.234;2023-03-11T12:14:39;95993.97;;;4.24;51.43
39555;BME280;25231;48.746;9.234;2023-03-11T12:17:09;95988.81;;;4.17;51.91
39555;BME280;25231;48.746;9.234;2023-03-11T12:19:52;95992.00;;;4.19;52.14
39555;BME280;25231;48.746;9.234;2023-03-11T12:27:41;95983.53;;;3.79;53.49
39555;BME280;25231;48.746;9.234;2023-03-11T12:30:25;95973.44;;;3.58;54.74
39555;BME280;25231;48.746;9.234;2023-03-11T12:35:56;95964.47;;;3.60;54.24
39555;BME280;25231;48.746;9.234;2023-03-11T12:50:57;95969.03;;;3.71;54.20
39555;BME280;25231;48.746;9.234;2023-03-11T12:53:46;95973.59;;;3.76;54.41
39555;BME280;25231;48.746;9.234;2023-03-11T13:12:52;95962.59;;;3.87;53.66
39555;BME280;25231;48.746;9.234;2023-03-11T13:20:46;95963.75;;;3.98;53.45
39555;BME280;25231;48.746;9.234;2023-03-11T13:25:58;95965.56;;;4.35;52.71
39555;BME280;25231;48.746;9.234;2023-03-11T13:28:55;95961.41;;;4.34;52.47
39555;BME280;25231;48.746;9.234;2023-03-11T13:39:54;95979.19;;;4.24;51.09
39555;BME280;25231;48.746;9.234;2023-03-11T13:42:48;95979.16;;;4.37;51.47
39555;BME280;25231;48.746;9.234;2023-03-11T13:45:24;95971.34;;;4.44;51.75
39555;BME280;25231;48.746;9.234;2023-03-11T13:47:52;95982.44;;;4.13;52.50
39555;BME280;25231;48.746;9.234;2023-03-11T13:50:30;95981.25;;;4.15;53.09
39555;BME280;25231;48.746;9.234;2023-03-11T13:53:02;95978.94;;;3.88;52.36
39555;BME280;25231;48.746;9.234;2023-03-11T13:55:35;95977.66;;;4.16;53.04
39555;BME280;25231;48.746;9.234;2023-03-11T13:58:14;95989.69;;;3.91;52.33
39555;BME280;25231;48.746;9.234;2023-03-11T14:00:52;95975.09;;;4.10;53.23
39555;BME280;25231;48.746;9.234;2023-03-11T14:03:19;95987.84;;;4.11;53.14
39555;BME280;25231;48.746;9.234;2023-03-11T14:05:49;95984.47;;;4.04;52.55
39555;BME280;25231;48.746;9.234;2023-03-11T14:08:23;95979.94;;;3.93;52.45
39555;BME280;25231;48.746;9.234;2023-03-11T14:10:57;95975.06;;;4.16;53.88
39555;BME280;25231;48.746;9.234;2023-03-11T14:16:30;95976.09;;;4.47;52.14
39555;BME280;25231;48.746;9.234;2023-03-11T14:19:04;95973.63;;;4.58;51.20
39555;BME280;25231;48.746;9.234;2023-03-11T14:21:41;95972.53;;;4.41;52.36
39555;BME280;25231;48.746;9.234;2023-03-11T14:24:15;95965.50;;;4.48;52.08
39555;BME280;25231;48.746;9.234;2023-03-11T14:26:41;95969.41;;;4.33;52.71
39555;BME280;25231;48.746;9.234;2023-03-11T14:29:10;95974.13;;;4.42;52.45
39555;BME280;25231;48.746;9.234;2023-03-11T14:31:41;95969.75;;;4.36;53.05
39555;BME280;25231;48.746;9.234;2023-03-11T14:34:16;95979.88;;;4.51;52.53
39555;BME280;25231;48.746;9.234;2023-03-11T14:42:18;95971.78;;;4.34;53.28
39555;BME280;25231;48.746;9.234;2023-03-11T14:49:58;95973.31;;;4.42;53.93
39555;BME280;25231;48.746;9.234;2023-03-11T14:52:49;95968.94;;;4.74;53.88
39555;BME280;25231;48.746;9.234;2023-03-11T14:55:21;95953.28;;;4.62;54.54
39555;BME280;25231;48.746;9.234;2023-03-11T14:57:49;95963.09;;;4.53;54.80
39555;BME280;25231;48.746;9.234;2023-03-11T15:00:21;95964.66;;;4.61;53.71
39555;BME280;25231;48.746;9.234;2023-03-11T15:05:55;95973.53;;;5.03;51.94
39555;BME280;25231;48.746;9.234;2023-03-11T15:08:26;95976.06;;;5.10;52.35
39555;BME280;25231;48.746;9.234;2023-03-11T15:13:35;95983.16;;;4.96;52.98
39555;BME280;25231;48.746;9.234;2023-03-11T15:16:05;95985.44;;;4.86;52.34
39555;BME280;25231;48.746;9.234;2023-03-11T15:18:34;95987.56;;;4.64;54.26